sensor_id;sensor_type;location;lat;lon;timestamp;pressure;altitude;pressure_sealevel;temperature;humidity
70248;BME280;57641;51.416;5.506;2023-06-10T00:01:54;101424.41;;;28.44;37.65
70248;BME280;57641;51.416;5.506;2023-06-10T00:04:25;101423.19;;;28.35;37.53
70248;BME280;57641;51.416;5.506;2023-06-10T00:07:33;101420.66;;;28.29;37.15
70248;BME280;57641;51.416;5.506;2023-06-10T00:09:48;101430.47;;;28.25;37.51
70248;BME280;57641;51.416;5.506;2023-06-10T00:12:14;101428.81;;;28.24;38.12
70248;BME280;57641;51.416;5.506;2023-06-10T00:14:40;101430.69;;;28.18;37.69
70248;BME280;57641;51.416;5.506;2023-06-10T00:17:06;101431.19;;;28.15;37.39
70248;BME280;57641;51.416;5.506;2023-06-10T00:19:36;101435.59;;;28.16;37.78
70248;BME280;57641;51.416;5.506;2023-06-10T00:22:02;101426.13;;;28.07;37.86
70248;BME280;57641;51.416;5.506;2023-06-10T00:24:28;101429.13;;;28.05;37.68
70248;BME280;57641;51.416;5.506;2023-06-10T00:26:54;101434.84;;;28.04;37.69
70248;BME280;57641;51.416;5.506;2023-06-10T00:29:19;101429.47;;;27.92;38.59
70248;BME280;57641;51.416;5.506;2023-06-10T00:31:45;101430.59;;;27.91;37.47
70248;BME280;57641;51.416;5.506;2023-06-10T00:34:12;101427.00;;;27.91;38.09
70248;BME280;57641;51.416;5.506;2023-06-10T00:36:37;101438.41;;;27.83;38.64
70248;BME280;57641;51.416;5.506;2023-06-10T00:39:03;101430.16;;;27.83;38.08
70248;BME280;57641;51.416;5.506;2023-06-10T00:41:30;101434.44;;;27.73;38.46
70248;BME280;57641;51.416;5.506;2023-06-10T00:43:56;101441.91;;;27.78;38.89
70248;BME280;57641;51.416;5.506;2023-06-10T00:46:23;101439.91;;;27.73;39.03
70248;BME280;57641;51.416;5.506;2023-06-10T00:48:51;101443.66;;;27.67;38.79
70248;BME280;57641;51.416;5.506;2023-06-10T00:51:20;101439.03;;;27.68;39.12
70248;BME280;57641;51.416;5.506;2023-06-10T00:53:46;101434.28;;;27.63;39.52
70248;BME280;57641;51.416;5.506;2023-06-10T00:56:13;101439.03;;;27.68;38.63
70248;BME280;57641;51.416;5.506;2023-06-10T00:58:38;101438.63;;;27.59;38.60
70248;BME280;57641;51.416;5.506;2023-06-10T01:01:04;101436.72;;;27.60;39.09
70248;BME280;57641;51.416;5.506;2023-06-10T01:03:30;101435.31;;;27.57;38.70
70248;BME280;57641;51.416;5.506;2023-06-10T01:06:47;101440.78;;;27.57;38.52
70248;BME280;57641;51.416;5.506;2023-06-10T01:08:59;101438.44;;;27.49;38.74
70248;BME280;57641;51.416;5.506;2023-06-10T01:11:45;101443.19;;;27.54;38.94
70248;BME280;57641;51.416;5.506;2023-06-10T01:14:12;101442.50;;;27.47;38.86
70248;BME280;57641;51.416;5.506;2023-06-10T01:16:40;101440.38;;;27.32;39.23
70248;BME280;57641;51.416;5.506;2023-06-10T01:19:07;101440.38;;;27.32;39.41
70248;BME280;57641;51.416;5.506;2023-06-10T01:21:33;101445.50;;;27.28;39.36
70248;BME280;57641;51.416;5.506;2023-06-10T01:23:58;101443.03;;;27.27;39.57
70248;BME280;57641;51.416;5.506;2023-06-10T01:26:29;101447.50;;;27.16;39.93
70248;BME280;57641;51.416;5.506;2023-06-10T01:29:51;101446.91;;;27.14;40.49
70248;BME280;57641;51.416;5.506;2023-06-10T01:32:17;101448.56;;;26.99;40.84
70248;BME280;57641;51.416;5.506;2023-06-10T01:34:44;101440.50;;;26.92;40.71
70248;BME280;57641;51.416;5.506;2023-06-10T01:37:16;101444.94;;;26.81;40.15
70248;BME280;57641;51.416;5.506;2023-06-10T01:39:43;101446.25;;;26.79;40.34
70248;BME280;57641;51.416;5.506;2023-06-10T01:42:10;101445.75;;;26.82;40.62
70248;BME280;57641;51.416;5.506;2023-06-10T01:44:38;101450.06;;;26.78;40.57
70248;BME280;57641;51.416;5.506;2023-06-10T01:47:04;101448.66;;;26.75;40.55
70248;BME280;57641;51.416;5.506;2023-06-10T01:49:29;101448.06;;;26.73;40.38
70248;BME280;57641;51.416;5.506;2023-06-10T01:51:55;101447.00;;;26.74;40.59
70248;BME280;57641;51.416;5.506;2023-06-10T01:54:20;101450.03;;;26.61;40.80
70248;BME280;57641;51.416;5.506;2023-06-10T01:56:46;101445.91;;;26.59;40.64
70248;BME280;57641;51.416;5.506;2023-06-10T01:59:11;101447.09;;;26.51;41.17
70248;BME280;57641;51.416;5.506;2023-06-10T02:01:37;101445.00;;;26.41;41.22
70248;BME280;57641;51.416;5.506;2023-06-10T02:04:02;101450.81;;;26.45;40.24
70248;BME280;57641;51.416;5.506;2023-06-10T02:06:28;101457.00;;;26.40;40.97
70248;BME280;57641;51.416;5.506;2023-06-10T02:08:53;101456.81;;;26.30;41.01
70248;BME280;57641;51.416;5.506;2023-06-10T02:11:18;101451.34;;;26.30;41.46
70248;BME280;57641;51.416;5.506;2023-06-10T02:13:44;101461.44;;;26.18;41.35
70248;BME280;57641;51.416;5.506;2023-06-10T02:16:09;101454.78;;;26.14;41.05
70248;BME280;57641;51.416;5.506;2023-06-10T02:18:39;101459.81;;;26.17;41.76
70248;BME280;57641;51.416;5.506;2023-06-10T02:21:06;101456.34;;;26.10;41.32
70248;BME280;57641;51.416;5.506;2023-06-10T02:23:32;101453.97;;;26.02;41.39
70248;BME280;57641;51.416;5.506;2023-06-10T02:25:57;101461.94;;;26.03;41.08
70248;BME280;57641;51.416;5.506;2023-06-10T02:28:23;101463.75;;;25.98;41.32
70248;BME280;57641;51.416;5.506;2023-06-10T02:30:48;101462.69;;;25.99;41.33
70248;BME280;57641;51.416;5.506;2023-06-10T02:33:14;101459.22;;;25.92;41.10
70248;BME280;57641;51.416;5.506;2023-06-10T02:35:40;101463.75;;;25.98;41.06
70248;BME280;57641;51.416;5.506;2023-06-10T02:38:09;101458.06;;;25.88;41.50
70248;BME280;57641;51.416;5.506;2023-06-10T02:40:45;101459.84;;;25.71;41.32
70248;BME280;57641;51.416;5.506;2023-06-10T02:43:14;101464.25;;;25.72;41.22
70248;BME280;57641;51.416;5.506;2023-06-10T02:45:39;101453.91;;;25.74;41.51
70248;BME280;57641;51.416;5.506;2023-06-10T02:48:05;101461.28;;;25.73;41.61
70248;BME280;57641;51.416;5.506;2023-06-10T02:50:31;101461.63;;;25.77;41.01
70248;BME280;57641;51.416;5.506;2023-06-10T02:52:56;101460.78;;;25.76;41.14
70248;BME280;57641;51.416;5.506;2023-06-10T02:55:21;101460.69;;;25.71;41.59
70248;BME280;57641;51.416;5.506;2023-06-10T02:57:47;101462.00;;;25.69;41.36
70248;BME280;57641;51.416;5.506;2023-06-10T03:00:13;101455.09;;;25.66;41.14
70248;BME280;57641;51.416;5.506;2023-06-10T03:02:39;101464.84;;;25.62;41.47
70248;BME280;57641;51.416;5.506;2023-06-10T03:05:06;101464.09;;;25.55;41.72
70248;BME280;57641;51.416;5.506;2023-06-10T03:07:36;101459.94;;;25.52;41.85
70248;BME280;57641;51.416;5.506;2023-06-10T03:10:02;101463.06;;;25.56;41.90
70248;BME280;57641;51.416;5.506;2023-06-10T03:12:28;101466.13;;;25.48;41.87
70248;BME280;57641;51.416;5.506;2023-06-10T03:14:53;101462.31;;;25.37;42.13
70248;BME280;57641;51.416;5.506;2023-06-10T03:17:19;101463.28;;;25.43;42.41
70248;BME280;57641;51.416;5.506;2023-06-10T03:19:45;101468.50;;;25.33;42.33
70248;BME280;57641;51.416;5.506;2023-06-10T03:22:12;101461.94;;;25.34;42.10
70248;BME280;57641;51.416;5.506;2023-06-10T03:24:38;101474.63;;;25.28;42.20
70248;BME280;57641;51.416;5.506;2023-06-10T03:27:09;101466.69;;;25.27;42.31
70248;BME280;57641;51.416;5.506;2023-06-10T03:29:39;101464.91;;;25.20;42.53
70248;BME280;57641;51.416;5.506;2023-06-10T03:32:05;101482.56;;;25.18;43.02
70248;BME280;57641;51.416;5.506;2023-06-10T03:34:31;101472.25;;;25.20;42.97
70248;BME280;57641;51.416;5.506;2023-06-10T03:36:57;101479.34;;;25.09;43.74
70248;BME280;57641;51.416;5.506;2023-06-10T03:39:22;101477.69;;;25.08;43.63
70248;BME280;57641;51.416;5.506;2023-06-10T03:41:54;101479.44;;;25.03;43.42
70248;BME280;57641;51.416;5.506;2023-06-10T03:44:19;101484.53;;;24.99;43.22
70248;BME280;57641;51.416;5.506;2023-06-10T03:46:45;101487.72;;;24.96;43.54
70248;BME280;57641;51.416;5.506;2023-06-10T03:49:10;101488.44;;;24.92;43.89
70248;BME280;57641;51.416;5.506;2023-06-10T03:51:36;101482.31;;;24.78;44.07
70248;BME280;57641;51.416;5.506;2023-06-10T03:54:02;101488.72;;;24.83;44.53
70248;BME280;57641;51.416;5.506;2023-06-10T03:56:28;101494.63;;;24.80;44.17
70248;BME280;57641;51.416;5.506;2023-06-10T03:58:54;101498.31;;;24.74;44.59
70248;BME280;57641;51.416;5.506;2023-06-10T04:01:21;101493.31;;;24.71;44.62
70248;BME280;57641;51.416;5.506;2023-06-10T04:03:47;101490.56;;;24.71;44.93
70248;BME280;57641;51.416;5.506;2023-06-10T04:06:15;101495.59;;;24.74;44.35
70248;BME280;57641;51.416;5.506;2023-06-10T04:08:41;101492.69;;;24.69;45.57
70248;BME280;57641;51.416;5.506;2023-06-10T04:11:08;101492.19;;;24.61;45.25
70248;BME280;57641;51.416;5.506;2023-06-10T04:13:34;101497.78;;;24.66;45.59
70248;BME280;57641;51.416;5.506;2023-06-10T04:15:59;101495.97;;;24.60;45.15
70248;BME280;57641;51.416;5.506;2023-06-10T04:18:25;101486.50;;;24.62;45.61
70248;BME280;57641;51.416;5.506;2023-06-10T04:20:51;101500.00;;;24.57;45.64
70248;BME280;57641;51.416;5.506;2023-06-10T04:23:16;101500.84;;;24.58;45.50
70248;BME280;57641;51.416;5.506;2023-06-10T04:25:42;101499.66;;;24.65;45.17
70248;BME280;57641;51.416;5.506;2023-06-10T04:28:08;101513.09;;;24.67;45.02
70248;BME280;57641;51.416;5.506;2023-06-10T04:30:33;101508.81;;;24.71;44.89
70248;BME280;57641;51.416;5.506;2023-06-10T04:32:59;101513.00;;;24.73;45.41
70248;BME280;57641;51.416;5.506;2023-06-10T04:35:24;101513.59;;;24.75;45.26
70248;BME280;57641;51.416;5.506;2023-06-10T04:37:53;101509.22;;;24.74;45.15
70248;BME280;57641;51.416;5.506;2023-06-10T04:40:19;101512.31;;;24.78;45.03
70248;BME280;57641;51.416;5.506;2023-06-10T04:42:44;101515.63;;;24.80;44.82
70248;BME280;57641;51.416;5.506;2023-06-10T04:45:11;101522.38;;;24.77;45.34
70248;BME280;57641;51.416;5.506;2023-06-10T04:47:36;101511.56;;;24.71;45.41
70248;BME280;57641;51.416;5.506;2023-06-10T04:50:02;101514.56;;;24.81;45.79
70248;BME280;57641;51.416;5.506;2023-06-10T04:52:28;101516.72;;;24.79;46.11
70248;BME280;57641;51.416;5.506;2023-06-10T04:54:54;101513.50;;;24.82;45.81
70248;BME280;57641;51.416;5.506;2023-06-10T04:57:20;101521.16;;;24.92;45.33
70248;BME280;57641;51.416;5.506;2023-06-10T04:59:47;101516.75;;;24.91;45.10
70248;BME280;57641;51.416;5.506;2023-06-10T05:02:13;101509.59;;;25.08;44.38
70248;BME280;57641;51.416;5.506;2023-06-10T05:04:39;101519.31;;;25.04;44.89
70248;BME280;57641;51.416;5.506;2023-06-10T05:07:05;101522.41;;;25.07;45.26
70248;BME280;57641;51.416;5.506;2023-06-10T05:09:30;101527.63;;;25.09;45.12
70248;BME280;57641;51.416;5.506;2023-06-10T05:11:56;101518.00;;;25.06;44.91
70248;BME280;57641;51.416;5.506;2023-06-10T05:14:22;101519.81;;;25.12;44.88
70248;BME280;57641;51.416;5.506;2023-06-10T05:16:48;101517.31;;;25.11;45.40
70248;BME280;57641;51.416;5.506;2023-06-10T05:19:14;101522.00;;;25.22;45.08
70248;BME280;57641;51.416;5.506;2023-06-10T05:21:41;101523.06;;;25.21;45.08
70248;BME280;57641;51.416;5.506;2023-06-10T05:24:07;101529.88;;;25.12;45.73
70248;BME280;57641;51.416;5.506;2023-06-10T05:26:33;101528.59;;;25.14;45.79
70248;BME280;57641;51.416;5.506;2023-06-10T05:29:03;101525.31;;;25.24;45.98
70248;BME280;57641;51.416;5.506;2023-06-10T05:31:28;101527.31;;;25.29;45.41
70248;BME280;57641;51.416;5.506;2023-06-10T05:33:53;101519.00;;;25.23;45.39
70248;BME280;57641;51.416;5.506;2023-06-10T05:36:19;101518.81;;;25.37;45.09
70248;BME280;57641;51.416;5.506;2023-06-10T05:38:44;101523.75;;;25.28;45.67
70248;BME280;57641;51.416;5.506;2023-06-10T05:41:10;101521.28;;;25.38;45.24
70248;BME280;57641;51.416;5.506;2023-06-10T05:43:35;101522.25;;;25.44;44.70
70248;BME280;57641;51.416;5.506;2023-06-10T05:46:01;101519.41;;;25.50;44.80
70248;BME280;57641;51.416;5.506;2023-06-10T05:48:27;101518.34;;;25.51;44.81
70248;BME280;57641;51.416;5.506;2023-06-10T05:50:55;101524.94;;;25.62;44.47
70248;BME280;57641;51.416;5.506;2023-06-10T05:53:21;101524.31;;;25.60;44.36
70248;BME280;57641;51.416;5.506;2023-06-10T05:55:46;101527.16;;;25.65;44.65
70248;BME280;57641;51.416;5.506;2023-06-10T05:58:13;101528.72;;;25.73;44.28
70248;BME280;57641;51.416;5.506;2023-06-10T06:00:39;101528.50;;;25.74;44.08
70248;BME280;57641;51.416;5.506;2023-06-10T06:03:09;101528.63;;;25.79;44.20
70248;BME280;57641;51.416;5.506;2023-06-10T06:05:35;101533.13;;;25.74;44.36
70248;BME280;57641;51.416;5.506;2023-06-10T06:08:06;101529.19;;;25.81;43.48
70248;BME280;57641;51.416;5.506;2023-06-10T06:10:32;101530.03;;;25.93;43.66
70248;BME280;57641;51.416;5.506;2023-06-10T06:12:58;101530.88;;;25.94;43.59
70248;BME280;57641;51.416;5.506;2023-06-10T06:15:23;101530.66;;;25.95;44.17
70248;BME280;57641;51.416;5.506;2023-06-10T06:17:48;101527.41;;;26.10;43.06
70248;BME280;57641;51.416;5.506;2023-06-10T06:20:14;101525.53;;;26.22;42.94
70248;BME280;57641;51.416;5.506;2023-06-10T06:22:39;101529.44;;;26.26;42.22
70248;BME280;57641;51.416;5.506;2023-06-10T06:25:06;101535.03;;;26.31;42.33
70248;BME280;57641;51.416;5.506;2023-06-10T06:27:31;101534.06;;;26.37;42.44
70248;BME280;57641;51.416;5.506;2023-06-10T06:29:57;101533.91;;;26.44;41.71
70248;BME280;57641;51.416;5.506;2023-06-10T06:32:22;101532.72;;;26.52;41.51
70248;BME280;57641;51.416;5.506;2023-06-10T06:34:50;101539.34;;;26.56;41.61
70248;BME280;57641;51.416;5.506;2023-06-10T06:37:21;101545.31;;;26.64;41.85
70248;BME280;57641;51.416;5.506;2023-06-10T06:39:47;101536.34;;;26.69;41.18
70248;BME280;57641;51.416;5.506;2023-06-10T06:42:13;101543.50;;;26.70;41.51
70248;BME280;57641;51.416;5.506;2023-06-10T06:44:39;101540.88;;;26.75;41.39
70248;BME280;57641;51.416;5.506;2023-06-10T06:47:05;101547.28;;;26.80;40.53
70248;BME280;57641;51.416;5.506;2023-06-10T06:49:30;101540.00;;;26.86;40.50
70248;BME280;57641;51.416;5.506;2023-06-10T06:51:56;101536.78;;;26.89;40.78
70248;BME280;57641;51.416;5.506;2023-06-10T06:54:21;101543.03;;;27.01;40.61
70248;BME280;57641;51.416;5.506;2023-06-10T06:56:47;101546.72;;;27.07;40.00
70248;BME280;57641;51.416;5.506;2023-06-10T06:59:12;101553.34;;;27.11;39.76
70248;BME280;57641;51.416;5.506;2023-06-10T07:01:39;101546.91;;;27.17;40.24
70248;BME280;57641;51.416;5.506;2023-06-10T07:04:05;101551.38;;;27.23;39.84
70248;BME280;57641;51.416;5.506;2023-06-10T07:06:30;101560.03;;;27.31;39.55
70248;BME280;57641;51.416;5.506;2023-06-10T07:08:56;101554.97;;;27.40;40.21
70248;BME280;57641;51.416;5.506;2023-06-10T07:11:22;101562.44;;;27.45;39.95
70248;BME280;57641;51.416;5.506;2023-06-10T07:13:48;101558.25;;;27.54;39.90
70248;BME280;57641;51.416;5.506;2023-06-10T07:16:13;101562.47;;;27.61;39.49
70248;BME280;57641;51.416;5.506;2023-06-10T07:18:39;101566.38;;;27.65;39.34
70248;BME280;57641;51.416;5.506;2023-06-10T07:21:05;101563.63;;;27.65;39.04
70248;BME280;57641;51.416;5.506;2023-06-10T07:23:30;101567.88;;;27.73;39.21
70248;BME280;57641;51.416;5.506;2023-06-10T07:25:56;101568.03;;;27.83;39.38
70248;BME280;57641;51.416;5.506;2023-06-10T07:28:21;101565.13;;;27.90;38.48
70248;BME280;57641;51.416;5.506;2023-06-10T07:30:46;101564.97;;;27.96;38.38
70248;BME280;57641;51.416;5.506;2023-06-10T07:33:12;101563.06;;;27.97;37.68
70248;BME280;57641;51.416;5.506;2023-06-10T07:35:37;101564.78;;;28.03;38.13
70248;BME280;57641;51.416;5.506;2023-06-10T07:38:03;101565.34;;;28.05;38.01
70248;BME280;57641;51.416;5.506;2023-06-10T07:40:28;101568.69;;;28.07;37.71
70248;BME280;57641;51.416;5.506;2023-06-10T07:42:55;101572.94;;;28.14;37.29
70248;BME280;57641;51.416;5.506;2023-06-10T07:45:20;101571.75;;;28.27;37.76
70248;BME280;57641;51.416;5.506;2023-06-10T07:47:46;101570.59;;;28.23;38.38
70248;BME280;57641;51.416;5.506;2023-06-10T07:50:11;101571.75;;;28.27;38.23
70248;BME280;57641;51.416;5.506;2023-06-10T07:52:37;101560.97;;;28.42;38.05
70248;BME280;57641;51.416;5.506;2023-06-10T07:55:04;101560.03;;;28.53;37.20
70248;BME280;57641;51.416;5.506;2023-06-10T07:57:29;101558.44;;;28.58;36.90
70248;BME280;57641;51.416;5.506;2023-06-10T07:59:56;101568.44;;;28.69;36.12
70248;BME280;57641;51.416;5.506;2023-06-10T08:02:25;101570.13;;;28.70;36.82
70248;BME280;57641;51.416;5.506;2023-06-10T08:04:51;101565.84;;;28.79;36.18
70248;BME280;57641;51.416;5.506;2023-06-10T08:07:16;101571.16;;;28.85;35.71
70248;BME280;57641;51.416;5.506;2023-06-10T08:09:43;101567.81;;;28.83;34.60
70248;BME280;57641;51.416;5.506;2023-06-10T08:12:08;101568.78;;;28.94;34.77
70248;BME280;57641;51.416;5.506;2023-06-10T08:14:34;101560.09;;;29.02;34.36
70248;BME280;57641;51.416;5.506;2023-06-10T08:16:59;101560.63;;;29.04;33.69
70248;BME280;57641;51.416;5.506;2023-06-10T08:19:25;101552.25;;;29.16;34.13
70248;BME280;57641;51.416;5.506;2023-06-10T08:21:50;101557.00;;;29.25;34.05
70248;BME280;57641;51.416;5.506;2023-06-10T08:24:16;101558.25;;;29.34;34.45
70248;BME280;57641;51.416;5.506;2023-06-10T08:26:43;101563.56;;;29.46;34.75
70248;BME280;57641;51.416;5.506;2023-06-10T08:29:11;101563.97;;;29.60;34.75
70248;BME280;57641;51.416;5.506;2023-06-10T08:31:37;101562.34;;;29.64;33.55
70248;BME280;57641;51.416;5.506;2023-06-10T08:34:06;101564.03;;;29.70;33.25
70248;BME280;57641;51.416;5.506;2023-06-10T08:36:31;101565.78;;;29.81;33.58
70248;BME280;57641;51.416;5.506;2023-06-10T08:38:57;101564.22;;;29.90;33.23
70248;BME280;57641;51.416;5.506;2023-06-10T08:41:25;101562.59;;;29.94;33.10
70248;BME280;57641;51.416;5.506;2023-06-10T08:44:08;101561.03;;;30.03;33.12
70248;BME280;57641;51.416;5.506;2023-06-10T08:46:36;101560.72;;;30.05;32.72
70248;BME280;57641;51.416;5.506;2023-06-10T08:49:06;101558.91;;;30.20;32.63
70248;BME280;57641;51.416;5.506;2023-06-10T08:51:35;101564.94;;;30.17;31.01
70248;BME280;57641;51.416;5.506;2023-06-10T08:54:15;101562.75;;;30.25;31.68
70248;BME280;57641;51.416;5.506;2023-06-10T08:56:45;101561.16;;;30.29;31.42
70248;BME280;57641;51.416;5.506;2023-06-10T08:59:14;101561.72;;;30.36;31.58
70248;BME280;57641;51.416;5.506;2023-06-10T09:01:42;101563.16;;;30.43;31.85
70248;BME280;57641;51.416;5.506;2023-06-10T09:04:08;101562.38;;;30.48;31.91
70248;BME280;57641;51.416;5.506;2023-06-10T09:06:37;101565.44;;;30.61;31.88
70248;BME280;57641;51.416;5.506;2023-06-10T09:09:05;101556.94;;;30.63;31.90
70248;BME280;57641;51.416;5.506;2023-06-10T09:11:31;101556.13;;;30.73;30.74
70248;BME280;57641;51.416;5.506;2023-06-10T09:13:57;101555.88;;;30.74;30.34
70248;BME280;57641;51.416;5.506;2023-06-10T09:16:26;101552.84;;;30.76;29.62
70248;BME280;57641;51.416;5.506;2023-06-10T09:18:52;101553.16;;;30.84;30.23
70248;BME280;57641;51.416;5.506;2023-06-10T09:21:24;101559.78;;;30.93;30.14
70248;BME280;57641;51.416;5.506;2023-06-10T09:23:51;101552.66;;;30.97;29.78
70248;BME280;57641;51.416;5.506;2023-06-10T09:26:17;101552.69;;;31.02;29.82
70248;BME280;57641;51.416;5.506;2023-06-10T09:28:50;101549.88;;;30.92;29.10
70248;BME280;57641;51.416;5.506;2023-06-10T09:31:16;101550.47;;;31.04;29.29
70248;BME280;57641;51.416;5.506;2023-06-10T09:33:44;101553.25;;;31.15;30.34
70248;BME280;57641;51.416;5.506;2023-06-10T09:36:10;101551.31;;;31.30;30.01
70248;BME280;57641;51.416;5.506;2023-06-10T09:38:36;101554.66;;;31.32;29.06
70248;BME280;57641;51.416;5.506;2023-06-10T09:41:03;101549.97;;;31.38;28.68
70248;BME280;57641;51.416;5.506;2023-06-10T09:43:43;101550.25;;;31.46;29.29
70248;BME280;57641;51.416;5.506;2023-06-10T09:46:17;101553.31;;;31.60;29.72
70248;BME280;57641;51.416;5.506;2023-06-10T09:48:44;101548.34;;;31.62;29.56
70248;BME280;57641;51.416;5.506;2023-06-10T09:51:11;101544.78;;;31.67;29.13
70248;BME280;57641;51.416;5.506;2023-06-10T09:53:37;101540.88;;;31.73;29.03
70248;BME280;57641;51.416;5.506;2023-06-10T09:56:03;101540.34;;;31.76;28.57
70248;BME280;57641;51.416;5.506;2023-06-10T09:58:36;101541.44;;;31.80;28.00
70248;BME280;57641;51.416;5.506;2023-06-10T10:01:08;101538.41;;;31.86;28.84
70248;BME280;57641;51.416;5.506;2023-06-10T10:03:46;101537.56;;;31.91;28.31
70248;BME280;57641;51.416;5.506;2023-06-10T10:06:12;101533.41;;;32.04;28.33
70248;BME280;57641;51.416;5.506;2023-06-10T10:08:39;101543.31;;;32.00;26.84
70248;BME280;57641;51.416;5.506;2023-06-10T10:11:04;101530.91;;;32.07;26.75
70248;BME280;57641;51.416;5.506;2023-06-10T10:13:33;101530.31;;;32.10;27.18
70248;BME280;57641;51.416;5.506;2023-06-10T10:16:04;101536.16;;;32.14;27.02
70248;BME280;57641;51.416;5.506;2023-06-10T10:18:32;101531.16;;;32.21;27.92
70248;BME280;57641;51.416;5.506;2023-06-10T10:21:01;101527.84;;;32.24;27.20
70248;BME280;57641;51.416;5.506;2023-06-10T10:23:41;101527.00;;;32.28;27.41
70248;BME280;57641;51.416;5.506;2023-06-10T10:26:10;101532.25;;;32.30;27.03
70248;BME280;57641;51.416;5.506;2023-06-10T10:28:51;101530.06;;;32.22;27.65
70248;BME280;57641;51.416;5.506;2023-06-10T10:31:19;101521.47;;;32.28;26.64
70248;BME280;57641;51.416;5.506;2023-06-10T10:33:57;101523.94;;;32.40;27.07
70248;BME280;57641;51.416;5.506;2023-06-10T10:36:24;101532.22;;;32.40;27.02
70248;BME280;57641;51.416;5.506;2023-06-10T10:38:50;101536.03;;;32.49;26.85
70248;BME280;57641;51.416;5.506;2023-06-10T10:41:18;101519.72;;;32.53;26.32
70248;BME280;57641;51.416;5.506;2023-06-10T10:43:44;101522.28;;;32.39;27.64
70248;BME280;57641;51.416;5.506;2023-06-10T10:46:15;101522.16;;;32.69;27.74
70248;BME280;57641;51.416;5.506;2023-06-10T10:48:43;101517.41;;;32.75;27.05
70248;BME280;57641;51.416;5.506;2023-06-10T10:51:10;101517.88;;;32.92;27.48
70248;BME280;57641;51.416;5.506;2023-06-10T10:53:39;101509.56;;;32.97;26.83
70248;BME280;57641;51.416;5.506;2023-06-10T10:56:07;101515.03;;;33.02;27.00
70248;BME280;57641;51.416;5.506;2023-06-10T10:58:33;101509.44;;;33.13;26.69
70248;BME280;57641;51.416;5.506;2023-06-10T11:00:59;101512.19;;;33.18;26.41
70248;BME280;57641;51.416;5.506;2023-06-10T11:03:28;101499.72;;;33.25;26.99
70248;BME280;57641;51.416;5.506;2023-06-10T11:05:57;101501.06;;;33.28;25.28
70248;BME280;57641;51.416;5.506;2023-06-10T11:10:57;101503.53;;;33.29;25.61
70248;BME280;57641;51.416;5.506;2023-06-10T11:13:23;101505.56;;;33.19;24.68
70248;BME280;57641;51.416;5.506;2023-06-10T11:15:50;101495.28;;;33.24;24.04
70248;BME280;57641;51.416;5.506;2023-06-10T11:26:15;101493.41;;;33.48;26.01
70248;BME280;57641;51.416;5.506;2023-06-10T11:29:01;101488.88;;;33.63;26.19
70248;BME280;57641;51.416;5.506;2023-06-10T11:33:54;101486.44;;;33.56;24.59
70248;BME280;57641;51.416;5.506;2023-06-10T11:36:21;101480.03;;;33.61;25.18
70248;BME280;57641;51.416;5.506;2023-06-10T11:38:47;101481.88;;;33.70;23.69
70248;BME280;57641;51.416;5.506;2023-06-10T11:41:17;101487.97;;;33.72;24.17
70248;BME280;57641;51.416;5.506;2023-06-10T11:43:46;101477.63;;;33.83;23.41
70248;BME280;57641;51.416;5.506;2023-06-10T11:46:13;101487.91;;;34.01;23.96
70248;BME280;57641;51.416;5.506;2023-06-10T11:48:39;101480.31;;;34.12;24.09
70248;BME280;57641;51.416;5.506;2023-06-10T11:51:08;101481.78;;;34.28;24.01
70248;BME280;57641;51.416;5.506;2023-06-10T11:53:34;101469.06;;;34.27;24.24
70248;BME280;57641;51.416;5.506;2023-06-10T11:56:00;101465.19;;;34.28;23.78
70248;BME280;57641;51.416;5.506;2023-06-10T11:58:26;101477.19;;;34.42;23.59
70248;BME280;57641;51.416;5.506;2023-06-10T12:00:55;101466.25;;;34.51;23.29
70248;BME280;57641;51.416;5.506;2023-06-10T12:03:26;101469.88;;;34.51;22.87
70248;BME280;57641;51.416;5.506;2023-06-10T12:05:59;101456.06;;;34.27;22.56
70248;BME280;57641;51.416;5.506;2023-06-10T12:08:26;101467.31;;;34.36;23.03
70248;BME280;57641;51.416;5.506;2023-06-10T12:10:53;101458.94;;;34.60;23.64
70248;BME280;57641;51.416;5.506;2023-06-10T12:13:19;101457.91;;;34.74;23.87
70248;BME280;57641;51.416;5.506;2023-06-10T12:15:45;101455.13;;;34.74;22.88
70248;BME280;57641;51.416;5.506;2023-06-10T12:18:24;101458.34;;;34.82;22.48
70248;BME280;57641;51.416;5.506;2023-06-10T12:20:50;101450.66;;;34.79;21.85
70248;BME280;57641;51.416;5.506;2023-06-10T12:23:19;101454.38;;;34.88;22.47
70248;BME280;57641;51.416;5.506;2023-06-10T12:25:53;101454.91;;;34.90;22.53
70248;BME280;57641;51.416;5.506;2023-06-10T12:28:23;101448.59;;;35.03;22.25
70248;BME280;57641;51.416;5.506;2023-06-10T12:30:49;101457.91;;;34.93;22.48
70248;BME280;57641;51.416;5.506;2023-06-10T12:33:19;101453.03;;;34.85;21.96
70248;BME280;57641;51.416;5.506;2023-06-10T12:35:49;101453.00;;;35.04;21.26
70248;BME280;57641;51.416;5.506;2023-06-10T12:38:21;101451.31;;;34.89;22.22
70248;BME280;57641;51.416;5.506;2023-06-10T12:40:47;101450.75;;;35.06;21.79
70248;BME280;57641;51.416;5.506;2023-06-10T12:43:13;101456.91;;;35.22;22.75
70248;BME280;57641;51.416;5.506;2023-06-10T12:45:40;101445.66;;;35.32;22.41
70248;BME280;57641;51.416;5.506;2023-06-10T12:48:23;101447.59;;;35.45;22.52
70248;BME280;57641;51.416;5.506;2023-06-10T12:53:21;101450.31;;;35.64;21.47
70248;BME280;57641;51.416;5.506;2023-06-10T12:55:48;101456.31;;;35.71;21.55
70248;BME280;57641;51.416;5.506;2023-06-10T12:58:14;101446.38;;;35.37;20.19
70248;BME280;57641;51.416;5.506;2023-06-10T13:00:40;101450.75;;;35.71;21.01
70248;BME280;57641;51.416;5.506;2023-06-10T13:03:08;101448.22;;;35.74;19.20
70248;BME280;57641;51.416;5.506;2023-06-10T13:05:35;101446.13;;;35.80;20.21
70248;BME280;57641;51.416;5.506;2023-06-10T13:08:02;101453.31;;;35.81;20.69